createdAt,value
2022-09-10T00:01:24.492Z,25.05
2022-09-10T00:03:54.257Z,23.88
2022-09-10T00:06:27.888Z,24.70
2022-09-10T00:08:57.279Z,23.92
2022-09-10T00:11:26.465Z,24.23
2022-09-10T00:13:57.379Z,24.08
2022-09-10T00:16:25.517Z,24.98
2022-09-10T00:18:53.695Z,23.77
2022-09-10T00:21:22.273Z,23.98
2022-09-10T00:23:51.419Z,23.20
2022-09-10T00:26:21.740Z,24.33
2022-09-10T00:28:51.089Z,25.85
2022-09-10T00:31:21.768Z,26.75
2022-09-10T00:33:51.008Z,24.60
2022-09-10T00:36:22.647Z,21.33
2022-09-10T00:38:52.137Z,22.83
2022-09-10T00:41:22.596Z,24.13
2022-09-10T00:43:56.457Z,24.60
2022-09-10T00:46:38.178Z,25.92
2022-09-10T00:49:14.680Z,25.45
2022-09-10T00:51:43.983Z,22.67
2022-09-10T00:54:12.423Z,27.20
2022-09-10T00:56:41.075Z,28.65
2022-09-10T00:59:12.079Z,27.83
2022-09-10T01:01:42.201Z,28.30
2022-09-10T01:04:11.371Z,28.35
2022-09-10T01:06:41.482Z,29.15
2022-09-10T01:09:11.451Z,30.42
2022-09-10T01:12:05.291Z,26.52
2022-09-10T01:14:56.837Z,27.17
2022-09-10T01:17:31.759Z,29.83
2022-09-10T01:20:16.947Z,27.00
2022-09-10T01:23:01.262Z,25.20
2022-09-10T01:25:41.535Z,26.88
2022-09-10T01:28:16.445Z,26.50
2022-09-10T01:30:51.591Z,27.38
2022-09-10T01:33:27.777Z,29.23
2022-09-10T01:36:00.009Z,30.58
2022-09-10T01:38:31.625Z,30.63
2022-09-10T01:41:00.366Z,29.88
2022-09-10T01:43:34.132Z,28.75
2022-09-10T01:46:19.272Z,28.88
2022-09-10T01:49:13.771Z,31.27
2022-09-10T01:51:56.444Z,30.00
2022-09-10T01:54:39.724Z,27.30
2022-09-10T01:57:20.303Z,25.23
2022-09-10T01:59:56.184Z,30.30
2022-09-10T02:02:28.856Z,27.42
2022-09-10T02:04:59.011Z,31.65
2022-09-10T02:07:30.435Z,30.73
2022-09-10T02:10:00.283Z,29.23
2022-09-10T02:12:33.355Z,31.90
2022-09-10T02:15:17.147Z,28.77
2022-09-10T02:17:58.964Z,31.15
2022-09-10T02:20:30.380Z,27.88
2022-09-10T02:23:01.040Z,29.63
2022-09-10T02:25:34.422Z,29.20
2022-09-10T02:28:04.489Z,31.63
2022-09-10T02:30:35.056Z,31.63
2022-09-10T02:33:03.341Z,31.13
2022-09-10T02:35:32.133Z,32.67
2022-09-10T02:38:00.106Z,30.67
2022-09-10T02:40:31.531Z,35.72
2022-09-10T02:42:59.677Z,29.88
2022-09-10T02:45:29.526Z,34.60
2022-09-10T02:47:58.896Z,35.35
2022-09-10T02:50:27.135Z,34.80
2022-09-10T02:52:55.598Z,31.10
2022-09-10T02:55:23.627Z,31.10
2022-09-10T02:57:52.659Z,29.80
2022-09-10T03:00:21.186Z,30.55
2022-09-10T03:02:51.384Z,27.63
2022-09-10T03:05:20.788Z,26.98
2022-09-10T03:07:49.067Z,27.92
2022-09-10T03:10:18.052Z,33.50
2022-09-10T03:12:48.136Z,34.60
2022-09-10T03:15:16.464Z,30.05
2022-09-10T03:17:45.008Z,34.67
2022-09-10T03:20:13.458Z,36.22
2022-09-10T03:22:42.955Z,37.10
2022-09-10T03:25:14.644Z,38.00
2022-09-10T03:27:42.763Z,39.75
2022-09-10T03:30:11.775Z,39.03
2022-09-10T03:32:39.857Z,37.95
2022-09-10T03:35:10.444Z,39.60
2022-09-10T03:37:39.448Z,36.95
2022-09-10T03:40:11.220Z,37.40
2022-09-10T03:42:39.780Z,42.85
2022-09-10T03:45:09.195Z,41.40
2022-09-10T03:47:38.545Z,40.95
2022-09-10T03:50:08.292Z,41.42
2022-09-10T03:52:37.407Z,43.72
2022-09-10T03:55:06.367Z,41.08
2022-09-10T03:57:35.827Z,45.13
2022-09-10T04:00:04.932Z,44.70
2022-09-10T04:02:44.233Z,44.35
2022-09-10T04:05:14.155Z,42.40
2022-09-10T04:07:42.396Z,47.88
2022-09-10T04:10:10.938Z,39.38
2022-09-10T04:12:42.639Z,46.03
2022-09-10T04:15:11.967Z,45.88
2022-09-10T04:17:40.277Z,46.42
2022-09-10T04:20:09.420Z,42.10
2022-09-10T04:22:37.713Z,43.33
2022-09-10T04:25:06.451Z,52.20
2022-09-10T04:27:34.502Z,51.80
2022-09-10T04:30:05.354Z,43.22
2022-09-10T04:32:33.609Z,51.92
2022-09-10T04:35:02.500Z,45.47
2022-09-10T04:37:31.196Z,40.53
2022-09-10T04:39:59.575Z,49.83
2022-09-10T04:42:28.306Z,50.03
2022-09-10T04:44:57.343Z,46.60
2022-09-10T04:47:26.868Z,47.28
2022-09-10T04:49:55.811Z,52.95
2022-09-10T04:52:24.215Z,47.08
2022-09-10T04:54:53.905Z,50.15
2022-09-10T04:57:22.136Z,55.85
2022-09-10T04:59:50.443Z,46.53
2022-09-10T05:02:19.236Z,54.97
2022-09-10T05:04:48.642Z,55.08
2022-09-10T05:07:16.904Z,57.45
2022-09-10T05:09:45.389Z,57.30
2022-09-10T05:12:19.399Z,51.83
2022-09-10T05:14:48.981Z,54.42
2022-09-10T05:17:17.436Z,57.50
2022-09-10T05:19:45.397Z,58.42
2022-09-10T05:22:15.329Z,49.85
2022-09-10T05:24:44.118Z,56.63
2022-09-10T05:27:12.353Z,55.35
2022-09-10T05:29:41.204Z,59.63
2022-09-10T05:32:10.433Z,53.42
2022-09-10T05:34:39.555Z,60.10
2022-09-10T05:37:08.817Z,61.72
2022-09-10T05:39:39.194Z,59.17
2022-09-10T05:42:07.847Z,53.50
2022-09-10T05:44:36.910Z,57.83
2022-09-10T05:47:05.069Z,50.92
2022-09-10T05:49:33.698Z,49.28
2022-09-10T05:52:03.331Z,55.20
2022-09-10T05:54:31.505Z,53.33
2022-09-10T05:57:00.903Z,49.45
2022-09-10T05:59:30.084Z,51.28
2022-09-10T06:01:58.257Z,55.00
2022-09-10T06:04:27.647Z,49.03
2022-09-10T06:06:56.324Z,47.58
2022-09-10T06:09:24.510Z,51.97
2022-09-10T06:12:08.157Z,51.38
2022-09-10T06:14:37.381Z,46.65
2022-09-10T06:17:05.619Z,46.25
2022-09-10T06:19:34.216Z,46.53
2022-09-10T06:22:02.325Z,40.00
2022-09-10T06:24:34.338Z,38.47
2022-09-10T06:27:02.438Z,38.03
2022-09-10T06:29:36.541Z,40.05
2022-09-10T06:32:05.435Z,39.38
2022-09-10T06:34:33.569Z,37.33
2022-09-10T06:37:03.261Z,38.83
2022-09-10T06:39:32.688Z,34.97
2022-09-10T06:42:02.279Z,41.00
2022-09-10T06:44:50.364Z,34.35
2022-09-10T06:50:39.619Z,36.40
2022-09-10T06:53:07.689Z,31.85
2022-09-10T06:55:36.511Z,37.13
2022-09-10T06:58:04.672Z,34.40
2022-09-10T07:00:34.461Z,32.38
2022-09-10T07:03:02.491Z,34.70
2022-09-10T07:05:33.854Z,32.10
2022-09-10T07:08:03.232Z,35.53
2022-09-10T07:10:32.267Z,30.20
2022-09-10T07:13:02.093Z,27.52
2022-09-10T07:15:30.680Z,34.30
2022-09-10T07:18:00.516Z,29.00
2022-09-10T07:20:29.573Z,27.70
2022-09-10T07:22:58.871Z,30.20
2022-09-10T07:25:28.377Z,32.85
2022-09-10T07:28:13.724Z,30.90
2022-09-10T07:30:45.292Z,30.13
2022-09-10T07:33:16.527Z,32.40
2022-09-10T07:35:45.939Z,27.25
2022-09-10T07:38:16.951Z,27.20
2022-09-10T07:40:47.598Z,21.05
2022-09-10T07:43:15.977Z,19.35
2022-09-10T07:45:44.548Z,22.92
2022-09-10T07:48:13.353Z,23.55
2022-09-10T07:50:43.476Z,20.05
2022-09-10T07:53:11.550Z,17.65
2022-09-10T07:55:40.212Z,20.95
2022-09-10T07:58:08.631Z,17.98
2022-09-10T08:00:38.132Z,15.75
2022-09-10T08:03:12.224Z,15.75
2022-09-10T08:05:41.122Z,14.80
2022-09-10T08:08:11.247Z,19.98
2022-09-10T08:10:39.339Z,17.73
2022-09-10T08:13:08.040Z,17.60
2022-09-10T08:15:36.390Z,15.45
2022-09-10T08:18:05.199Z,14.88
2022-09-10T08:20:33.572Z,12.98
2022-09-10T08:23:02.283Z,15.27
2022-09-10T08:25:33.430Z,14.60
2022-09-10T08:28:01.876Z,15.90
2022-09-10T08:30:32.253Z,16.98
2022-09-10T08:33:01.085Z,24.27
2022-09-10T08:35:29.175Z,21.05
2022-09-10T08:37:57.171Z,22.45
2022-09-10T08:40:25.751Z,18.13
2022-09-10T08:42:56.430Z,17.15
2022-09-10T08:45:29.699Z,19.00
2022-09-10T08:48:03.350Z,21.48
2022-09-10T08:50:39.181Z,19.90
2022-09-10T08:53:25.989Z,19.70
2022-09-10T08:55:58.375Z,18.13
2022-09-10T08:58:33.126Z,16.70
2022-09-10T09:01:05.926Z,15.75
2022-09-10T09:03:41.410Z,15.60
2022-09-10T09:06:25.097Z,17.38
2022-09-10T09:08:54.422Z,14.93
2022-09-10T09:11:34.644Z,12.38
2022-09-10T09:14:16.269Z,13.40
2022-09-10T09:17:06.071Z,12.35
2022-09-10T09:19:35.903Z,14.35
2022-09-10T09:22:14.560Z,14.32
2022-09-10T09:24:51.285Z,19.00
2022-09-10T09:27:21.301Z,21.98
2022-09-10T09:30:00.075Z,22.30
2022-09-10T09:32:33.418Z,23.10
2022-09-10T09:35:10.106Z,22.80
2022-09-10T09:37:43.341Z,22.25
2022-09-10T09:40:17.712Z,22.33
2022-09-10T09:45:25.346Z,21.75
2022-09-10T09:47:54.548Z,23.08
2022-09-10T09:50:23.861Z,28.17
2022-09-10T09:52:56.309Z,22.70
2022-09-10T09:55:33.587Z,21.65
2022-09-10T09:58:31.128Z,24.70
2022-09-10T10:01:19.192Z,28.30
2022-09-10T10:03:53.057Z,35.92
2022-09-10T10:06:24.626Z,31.80
2022-09-10T10:09:04.692Z,28.45
2022-09-10T10:11:46.243Z,26.02
2022-09-10T10:14:26.595Z,24.35
2022-09-10T10:17:00.380Z,23.30
2022-09-10T10:19:32.897Z,21.67
2022-09-10T10:22:26.061Z,20.90
2022-09-10T10:24:54.910Z,22.08
2022-09-10T10:27:30.245Z,19.38
2022-09-10T10:30:01.542Z,19.52
2022-09-10T10:32:41.517Z,20.63
2022-09-10T10:35:30.363Z,15.85
2022-09-10T10:38:20.997Z,14.80
2022-09-10T10:40:57.487Z,15.18
2022-09-10T10:43:38.831Z,12.95
2022-09-10T10:46:15.202Z,16.98
2022-09-10T10:48:58.316Z,15.00
2022-09-10T10:51:40.152Z,20.10
2022-09-10T10:54:23.666Z,16.58
2022-09-10T10:57:00.408Z,13.37
2022-09-10T10:59:46.107Z,15.13
2022-09-10T11:02:19.445Z,12.75
2022-09-10T11:04:51.352Z,10.30
2022-09-10T11:07:23.590Z,14.13
2022-09-10T11:09:59.028Z,11.55
2022-09-10T11:12:32.922Z,10.85
2022-09-10T11:15:04.003Z,10.68
2022-09-10T11:17:38.459Z,9.63
2022-09-10T11:20:28.570Z,9.55
2022-09-10T11:23:04.727Z,9.82
2022-09-10T11:25:38.340Z,10.43
2022-09-10T11:28:13.456Z,8.60
2022-09-10T11:30:46.394Z,10.30
2022-09-10T11:33:21.178Z,10.63
2022-09-10T11:35:56.246Z,8.85
2022-09-10T11:38:30.567Z,8.27
2022-09-10T11:41:09.042Z,8.00
2022-09-10T11:43:45.050Z,8.50
2022-09-10T11:46:16.735Z,7.97
2022-09-10T11:48:49.496Z,7.60
2022-09-10T11:51:25.914Z,14.23
2022-09-10T11:53:56.323Z,8.15
2022-09-10T11:56:50.567Z,9.60
2022-09-10T11:59:33.110Z,7.47
2022-09-10T12:02:22.082Z,7.50
2022-09-10T12:04:58.516Z,7.30
2022-09-10T12:07:41.168Z,5.80
2022-09-10T12:10:19.672Z,5.13
2022-09-10T12:12:50.272Z,5.00
2022-09-10T12:15:22.107Z,4.97
2022-09-10T12:17:55.001Z,4.68
2022-09-10T12:20:30.083Z,4.57
2022-09-10T12:23:00.283Z,5.20
2022-09-10T12:25:34.315Z,4.40
2022-09-10T12:28:05.418Z,4.40
2022-09-10T12:31:04.259Z,4.07
2022-09-10T12:34:08.296Z,5.13
2022-09-10T12:37:19.104Z,4.72
2022-09-10T12:39:49.576Z,3.85
2022-09-10T12:42:29.790Z,4.45
2022-09-10T12:44:58.312Z,4.10
2022-09-10T12:47:45.167Z,4.03
2022-09-10T12:50:37.245Z,3.83
2022-09-10T12:53:50.636Z,4.18
2022-09-10T12:57:00.602Z,4.30
2022-09-10T13:00:03.640Z,4.15
2022-09-10T13:02:34.860Z,3.90
2022-09-10T13:05:06.235Z,4.30
2022-09-10T13:07:41.756Z,3.55
2022-09-10T13:10:22.030Z,3.08
2022-09-10T13:12:55.154Z,3.42
2022-09-10T13:15:27.492Z,3.13
2022-09-10T13:18:25.903Z,2.80
2022-09-10T13:20:54.345Z,3.28
2022-09-10T13:23:47.583Z,2.95
2022-09-10T13:26:37.461Z,3.50
2022-09-10T13:29:11.225Z,3.28
2022-09-10T13:34:59.349Z,3.42
2022-09-10T13:37:57.103Z,3.50
2022-09-10T13:41:02.554Z,5.95
2022-09-10T13:43:58.441Z,6.93
2022-09-10T13:46:35.706Z,5.32
2022-09-10T13:49:14.109Z,5.15
2022-09-10T13:51:48.616Z,4.30
2022-09-10T13:54:34.451Z,4.10
2022-09-10T13:57:09.261Z,4.10
2022-09-10T13:59:39.541Z,4.20
2022-09-10T14:02:07.705Z,4.13
2022-09-10T14:04:44.252Z,4.32
2022-09-10T14:07:18.048Z,4.50
2022-09-10T14:09:49.037Z,4.43
2022-09-10T14:12:26.128Z,4.32
2022-09-10T14:14:59.057Z,4.38
2022-09-10T14:17:31.564Z,3.90
2022-09-10T14:20:04.570Z,5.15
2022-09-10T14:22:33.024Z,6.25
2022-09-10T14:25:02.845Z,6.20
2022-09-10T14:27:33.256Z,5.20
2022-09-10T14:30:23.259Z,5.07
2022-09-10T14:32:52.241Z,4.80
2022-09-10T14:35:43.075Z,5.35
2022-09-10T14:38:27.393Z,7.50
2022-09-10T14:40:58.691Z,9.40
2022-09-10T14:43:30.587Z,7.93
2022-09-10T14:45:59.094Z,6.72
2022-09-10T14:48:37.297Z,5.90
2022-09-10T14:51:17.852Z,5.40
2022-09-10T14:53:47.413Z,5.13
2022-09-10T14:56:25.955Z,5.80
2022-09-10T14:59:00.407Z,5.60
2022-09-10T15:01:29.301Z,5.40
2022-09-10T15:03:59.197Z,5.20
2022-09-10T15:06:28.592Z,5.30
2022-09-10T15:08:57.073Z,5.63
2022-09-10T15:11:27.979Z,5.10
2022-09-10T15:13:58.729Z,6.65
2022-09-10T15:16:27.742Z,5.75
2022-09-10T15:18:55.872Z,5.38
2022-09-10T15:21:25.393Z,5.10
2022-09-10T15:23:55.118Z,6.05
2022-09-10T15:26:23.182Z,5.70
2022-09-10T15:28:56.180Z,5.97
2022-09-10T15:31:24.590Z,6.00
2022-09-10T15:33:53.200Z,6.00
2022-09-10T15:36:24.459Z,5.90
2022-09-10T15:39:09.469Z,5.60
2022-09-10T15:41:42.872Z,5.88
2022-09-10T15:44:33.936Z,6.28
2022-09-10T15:47:11.131Z,5.55
2022-09-10T15:49:41.716Z,5.43
2022-09-10T15:52:09.984Z,5.00
2022-09-10T15:54:43.126Z,4.43
2022-09-10T15:57:11.743Z,4.20
2022-09-10T15:59:40.556Z,4.60
2022-09-10T16:02:13.146Z,3.63
2022-09-10T16:04:43.195Z,4.28
2022-09-10T16:07:12.072Z,5.20
2022-09-10T16:09:42.723Z,4.85
2022-09-10T16:12:12.368Z,6.35
2022-09-10T16:14:40.810Z,9.82
2022-09-10T16:17:10.564Z,9.50
2022-09-10T16:19:39.419Z,9.20
2022-09-10T16:22:08.234Z,9.85
2022-09-10T16:24:36.693Z,9.48
2022-09-10T16:27:10.289Z,8.18
2022-09-10T16:29:40.105Z,7.50
2022-09-10T16:32:19.811Z,7.60
2022-09-10T16:34:51.015Z,6.78
2022-09-10T16:37:25.739Z,6.57
2022-09-10T16:39:57.033Z,6.50
2022-09-10T16:42:27.361Z,6.00
2022-09-10T16:44:57.956Z,7.60
2022-09-10T16:50:23.315Z,7.00
2022-09-10T16:52:52.178Z,9.48
2022-09-10T16:55:23.936Z,8.55
2022-09-10T16:57:56.128Z,7.38
2022-09-10T17:00:24.884Z,7.95
2022-09-10T17:02:52.975Z,7.93
2022-09-10T17:05:23.305Z,8.50
2022-09-10T17:07:52.021Z,8.75
2022-09-10T17:10:20.840Z,9.55
2022-09-10T17:12:48.905Z,8.30
2022-09-10T17:15:18.365Z,9.45
2022-09-10T17:17:46.706Z,10.07
2022-09-10T17:20:14.894Z,10.50
2022-09-10T17:22:43.025Z,11.23
2022-09-10T17:25:12.068Z,11.40
2022-09-10T17:27:40.459Z,11.18
2022-09-10T17:30:09.913Z,12.18
2022-09-10T17:32:40.208Z,12.30
2022-09-10T17:35:10.789Z,12.15
2022-09-10T17:37:41.295Z,12.60
2022-09-10T17:40:13.448Z,15.75
2022-09-10T17:42:42.256Z,17.13
2022-09-10T17:45:11.247Z,19.60
2022-09-10T17:47:40.629Z,19.90
2022-09-10T17:50:09.872Z,22.65
2022-09-10T17:52:37.913Z,22.98
2022-09-10T17:55:06.487Z,21.13
2022-09-10T17:57:35.584Z,18.27
2022-09-10T18:00:04.369Z,20.38
2022-09-10T18:02:32.664Z,20.50
2022-09-10T18:05:02.049Z,19.98
2022-09-10T18:07:30.075Z,21.33
2022-09-10T18:09:58.028Z,24.90
2022-09-10T18:12:26.050Z,24.17
2022-09-10T18:14:54.160Z,22.40
2022-09-10T18:17:22.477Z,23.58
2022-09-10T18:19:51.849Z,22.40
2022-09-10T18:22:21.859Z,20.98
2022-09-10T18:24:50.164Z,21.10
2022-09-10T18:27:18.215Z,21.65
2022-09-10T18:29:46.213Z,21.38
2022-09-10T18:32:16.010Z,22.17
2022-09-10T18:34:44.393Z,23.77
2022-09-10T18:37:13.582Z,26.45
2022-09-10T18:39:42.910Z,25.27
2022-09-10T18:42:11.292Z,30.10
2022-09-10T18:44:40.234Z,24.13
2022-09-10T18:47:27.948Z,23.10
2022-09-10T18:49:59.010Z,20.40
2022-09-10T18:52:27.361Z,19.30
2022-09-10T18:54:56.736Z,20.65
2022-09-10T18:57:24.763Z,21.30
2022-09-10T18:59:55.059Z,22.13
2022-09-10T19:02:23.930Z,20.90
2022-09-10T19:05:10.135Z,20.92
2022-09-10T19:07:38.561Z,25.77
2022-09-10T19:10:08.999Z,25.17
2022-09-10T19:12:36.961Z,20.10
2022-09-10T19:15:05.533Z,19.70
2022-09-10T19:17:33.540Z,19.25
2022-09-10T19:20:01.598Z,20.27
2022-09-10T19:22:29.658Z,20.17
2022-09-10T19:24:57.648Z,19.48
2022-09-10T19:27:27.108Z,18.85
2022-09-10T19:29:55.821Z,18.48
2022-09-10T19:32:23.845Z,18.23
2022-09-10T19:34:52.103Z,31.23
2022-09-10T19:37:20.866Z,29.67
2022-09-10T19:39:49.046Z,25.33
2022-09-10T19:42:17.258Z,22.52
2022-09-10T19:44:46.626Z,19.88
2022-09-10T19:47:14.779Z,18.48
2022-09-10T19:49:43.136Z,19.05
2022-09-10T19:52:11.246Z,17.02
2022-09-10T19:54:39.293Z,19.83
2022-09-10T19:57:07.301Z,20.50
2022-09-10T19:59:35.648Z,19.48
2022-09-10T20:02:05.125Z,20.30
2022-09-10T20:04:33.920Z,20.45
2022-09-10T20:07:02.096Z,20.35
2022-09-10T20:09:30.196Z,19.33
2022-09-10T20:11:58.307Z,19.48
2022-09-10T20:14:26.366Z,18.83
2022-09-10T20:16:54.630Z,32.05
2022-09-10T20:19:24.151Z,28.00
2022-09-10T20:21:52.187Z,26.65
2022-09-10T20:24:20.262Z,29.35
2022-09-10T20:26:49.068Z,26.42
2022-09-10T20:29:19.087Z,25.38
2022-09-10T20:31:48.510Z,25.30
2022-09-10T20:34:19.419Z,25.13
2022-09-10T20:36:51.173Z,25.08
2022-09-10T20:39:21.134Z,28.00
2022-09-10T20:41:49.560Z,27.88
2022-09-10T20:44:19.392Z,29.08
2022-09-10T20:46:47.747Z,27.13
2022-09-10T20:49:16.426Z,26.42
2022-09-10T20:51:44.772Z,27.88
2022-09-10T20:54:15.958Z,27.33
2022-09-10T20:56:44.334Z,26.70
2022-09-10T20:59:13.602Z,25.90
2022-09-10T21:01:43.725Z,26.35
2022-09-10T21:04:11.769Z,26.75
2022-09-10T21:06:40.752Z,25.52
2022-09-10T21:09:08.754Z,26.13
2022-09-10T21:11:38.411Z,26.48
2022-09-10T21:14:08.277Z,26.42
2022-09-10T21:16:37.867Z,27.40
2022-09-10T21:19:08.634Z,27.13
2022-09-10T21:21:39.357Z,27.80
2022-09-10T21:24:09.664Z,29.80
2022-09-10T21:26:40.512Z,28.38
2022-09-10T21:29:11.708Z,28.88
2022-09-10T21:31:40.158Z,26.52
2022-09-10T21:34:08.787Z,26.88
2022-09-10T21:36:38.533Z,28.48
2022-09-10T21:39:09.702Z,28.13
2022-09-10T21:41:41.278Z,28.67
2022-09-10T21:44:14.034Z,27.05
2022-09-10T21:46:42.544Z,29.60
2022-09-10T21:49:10.655Z,30.30
2022-09-10T21:51:38.920Z,27.98
2022-09-10T21:54:07.104Z,29.75
2022-09-10T21:56:35.049Z,30.10
2022-09-10T21:59:04.776Z,29.60
2022-09-10T22:01:33.538Z,29.98
2022-09-10T22:04:02.311Z,30.85
2022-09-10T22:06:31.857Z,32.92
2022-09-10T22:09:01.200Z,31.30
2022-09-10T22:11:31.721Z,32.00
2022-09-10T22:14:01.853Z,33.70
2022-09-10T22:16:32.371Z,35.05
2022-09-10T22:19:02.802Z,33.33
2022-09-10T22:21:31.546Z,33.40
2022-09-10T22:23:59.884Z,36.75
2022-09-10T22:26:29.165Z,34.65
2022-09-10T22:28:59.933Z,36.25
2022-09-10T22:31:29.554Z,38.50
2022-09-10T22:34:00.468Z,36.55
2022-09-10T22:36:31.520Z,34.75
2022-09-10T22:39:01.818Z,36.08
2022-09-10T22:41:31.621Z,38.17
2022-09-10T22:43:59.855Z,37.35
2022-09-10T22:46:28.415Z,38.45
2022-09-10T22:48:58.475Z,37.45
2022-09-10T22:51:28.520Z,37.88
2022-09-10T22:53:58.129Z,37.47
2022-09-10T22:56:27.642Z,35.40
2022-09-10T22:58:57.984Z,35.70
2022-09-10T23:01:28.542Z,35.90
2022-09-10T23:03:59.236Z,38.88
2022-09-10T23:06:30.611Z,35.53
2022-09-10T23:09:03.876Z,36.72
2022-09-10T23:11:32.947Z,36.25
2022-09-10T23:14:02.882Z,39.40
2022-09-10T23:16:32.761Z,35.85
2022-09-10T23:19:04.666Z,38.42
2022-09-10T23:21:34.928Z,38.38
2022-09-10T23:24:05.350Z,38.47
2022-09-10T23:26:54.303Z,37.30
2022-09-10T23:29:23.882Z,37.97
2022-09-10T23:31:53.338Z,38.90
2022-09-10T23:34:23.703Z,37.38
2022-09-10T23:36:53.476Z,37.10
2022-09-10T23:39:24.269Z,35.67
2022-09-10T23:41:54.770Z,38.58
2022-09-10T23:44:23.102Z,35.30
2022-09-10T23:46:51.235Z,37.40
2022-09-10T23:49:19.268Z,36.83
2022-09-10T23:51:48.983Z,36.80
2022-09-10T23:54:17.400Z,39.55
2022-09-10T23:56:45.738Z,40.08
2022-09-10T23:59:15.265Z,45.08
